Aachen, Germany

4:27 PM CET on January 30, 2015 (GMT +0100)
Maastricht-Aachen | Change Station
CLOSE
Current Station
Airport
Location: Maastricht,
Elevation: 374 ft
Nearby Weather Stations

Elev 374 ft 50.91 °N, 5.76 °E | Updated 2 minutes ago

Overcast
Overcast
36 °F
Feels Like 29 °F
N
8
Wind Variable Wind from SW

Today
High -- | Low -- °F
--% Chance of Precip.
Yesterday
High -- | Low -- °F
Precip. -- in
8:15 AM 5:23 PM
Waxing Gibbous, 83% visible
Pressure 28.88 in
Visibility 6.2 miles
Clouds Scattered Clouds 1300 ft
Overcast 1500 ft
Windchill 29 °F
Dew Point 32 °F
Humidity 87%
Rainfall 0.00 in
Snow Depth Not available.
UV 0 out of 12
Pollen Not available.
Air Quality Not available.
Flu Activity Not available.
METAR EHBK 301525Z AUTO 23007KT 210V270 9999 SCT013 OVC015 02/M00 Q0978 R03/2///95 TEMPO BKN013

More Conditions Fewer Conditions

Pressure 28.88 in
Visibility 6.2 miles
Clouds Scattered Clouds 1300 ft
Overcast 1500 ft
Windchill 29 °F
Dew Point 32 °F
Humidity 87%
Rainfall 0.00 in
Snow Depth Not available.
UV 0 out of 12
Pollen Not available.
Air Quality Not available.
Flu Activity Not available.
METAR EHBK 301525Z AUTO 23007KT 210V270 9999 SCT013 OVC015 02/M00 Q0978 R03/2///95 TEMPO BKN013

More Conditions Fewer Conditions

10-Day Weather Forecast

Almanac

Astronomy

Jan. 30, 2015 Rise Set
Actual Time
Civil Twilight
Nautical Twilight
Astronomical Twilight
Moon
Length of Visible Light
Length of Day
Tomorrow will be .
, % of the Moon is Illuminated

Today's Extremes

Country Highs Country Lows

Community

WunderPhotos

Upload Photos

1,791,787 photos uploaded!

WunderBlogs® & News

Nearby

Air Quality

  Air Quality AQ Index Pollutant
Not available.

Snow Depth

Station Depth Elevation

Earthquake Activity

City Distance Mag. Time & Date
Minimum magnitude displayed is 2.5.

Coastal Water Temperatures

Place Temperature

Nearby Weather Stations